Time;durP1;ratioP1;P1;durP2;ratioP2;P2;SDS_P1;SDS_P2;PMS_P1;PMS_P2;Temp;Humidity;BMP_temperature;BMP_pressure;BME280_temperature;BME280_humidity;BME280_pressure;Samples;Min_cycle;Max_cycle;Signal;HPM_P1;HPM_P2
2021/12/09 09:58:48;;;;;;;3.13;1.33;;;;;;;;;;5119663;27;20121;-69
2021/12/09 10:01:15;;;;;;;6.63;1.30;;;;;;;;;;5104305;28;20051;-69
2021/12/09 10:03:45;;;;;;;5.30;1.50;;;;;;;;;;5098322;28;20035;-68
2021/12/09 10:06:11;;;;;;;;;;;;;;;;;;5101778;28;20437;-67
2021/12/09 10:08:38;;;;;;;4.35;1.40;;;;;;;;;;5114813;28;19943;-67
2021/12/09 10:11:05;;;;;;;5.90;1.73;;;;;;;;;;5117594;28;20031;-67
2021/12/09 10:13:32;;;;;;;4.55;1.65;;;;;;;;;;5121562;28;20029;-68
2021/12/09 10:16:00;;;;;;;5.05;1.35;;;;;;;;;;5116281;28;20487;-67
2021/12/09 10:18:39;;;;;;;7.63;3.47;;;;;;;;;;5118772;28;20081;-67
2021/12/09 10:21:07;;;;;;;4.00;1.60;;;;;;;;;;5114752;28;20058;-67
2021/12/09 10:23:35;;;;;;;8.50;1.92;;;;;;;;;;5114533;28;20103;-66
2021/12/09 10:26:27;;;;;;;12.43;3.60;;;;;;;;;;5116470;28;20031;-67
2021/12/09 10:28:53;;;;;;;10.30;4.03;;;;;;;;;;5005605;28;20124;-67
2021/12/09 10:31:23;;;;;;;9.48;1.90;;;;;;;;;;5007154;28;20078;-67
2021/12/09 10:34:16;;;;;;;10.38;3.80;;;;;;;;;;5004198;28;20041;-67
2021/12/09 10:36:48;;;;;;;7.18;2.30;;;;;;;;;;4999573;28;20145;-67
2021/12/09 10:39:25;;;;;;;6.75;1.90;;;;;;;;;;5000340;28;20042;-68
2021/12/09 10:41:52;;;;;;;7.28;1.50;;;;;;;;;;5001578;28;20489;-67
2021/12/09 10:44:20;;;;;;;5.35;1.50;;;;;;;;;;5004279;28;20030;-68
2021/12/09 10:46:54;;;;;;;6.43;1.60;;;;;;;;;;5009433;28;20049;-68
2021/12/09 10:49:22;;;;;;;6.57;2.33;;;;;;;;;;5006584;28;20507;-67
2021/12/09 10:51:59;;;;;;;3.90;1.40;;;;;;;;;;5000424;28;20446;-67
2021/12/09 10:54:35;;;;;;;15.25;4.88;;;;;;;;;;5002984;28;20029;-67
2021/12/09 10:57:20;;;;;;;5.22;1.80;;;;;;;;;;5003823;28;20096;-67
2021/12/09 10:59:46;;;;;;;6.75;1.38;;;;;;;;;;5000524;28;20045;-67
2021/12/09 11:02:13;;;;;;;8.80;3.30;;;;;;;;;;5003835;28;20037;-67
2021/12/09 11:04:39;;;;;;;10.38;2.25;;;;;;;;;;4987804;28;20053;-67
2021/12/09 11:07:27;;;;;;;7.30;1.70;;;;;;;;;;5116006;28;20419;-67
2021/12/09 11:10:12;;;;;;;7.68;1.75;;;;;;;;;;5104059;28;20027;-67
2021/12/09 11:12:38;;;;;;;5.05;1.77;;;;;;;;;;5101969;28;20114;-67
2021/12/09 11:15:05;;;;;;;4.43;1.27;;;;;;;;;;5100341;28;20032;-67
2021/12/09 11:17:35;;;;;;;6.40;1.60;;;;;;;;;;5103644;28;20020;-67
2021/12/09 11:20:03;;;;;;;8.13;1.63;;;;;;;;;;5084908;28;20032;-68
2021/12/09 11:22:36;;;;;;;11.75;3.40;;;;;;;;;;5102616;28;20016;-67
2021/12/09 11:25:04;;;;;;;6.05;1.92;;;;;;;;;;5102098;28;20164;-67
2021/12/09 11:27:31;;;;;;;7.95;2.17;;;;;;;;;;5100947;28;20049;-68
2021/12/09 11:30:15;;;;;;;7.22;1.70;;;;;;;;;;5101063;28;20818;-67
2021/12/09 11:32:48;;;;;;;8.40;2.30;;;;;;;;;;5095309;28;20028;-67
2021/12/09 11:35:20;;;;;;;7.03;2.05;;;;;;;;;;5098616;28;20101;-69
2021/12/09 11:37:55;;;;;;;8.80;2.50;;;;;;;;;;5100266;28;20027;-68
2021/12/09 11:40:34;;;;;;;8.25;2.13;;;;;;;;;;5103299;28;20023;-67
2021/12/09 11:43:01;;;;;;;9.07;2.50;;;;;;;;;;5101622;28;20088;-67
2021/12/09 11:45:31;;;;;;;8.52;1.38;;;;;;;;;;5100615;28;20024;-67
2021/12/09 11:47:58;;;;;;;7.32;1.58;;;;;;;;;;5102179;28;20031;-67
2021/12/09 11:50:26;;;;;;;7.20;1.75;;;;;;;;;;5102305;28;20035;-67
2021/12/09 11:52:53;;;;;;;6.63;1.60;;;;;;;;;;5100441;28;20020;-67
2021/12/09 11:55:23;;;;;;;6.43;2.10;;;;;;;;;;5102749;28;20540;-67
2021/12/09 11:57:55;;;;;;;9.90;2.30;;;;;;;;;;5099104;28;20056;-68
2021/12/09 12:06:50;;;;;;;8.73;2.72;;;;;;;;;;5098411;28;20510;-68
2021/12/09 12:12:21;;;;;;;11.30;2.50;;;;;;;;;;5098306;28;20039;-68
2021/12/09 12:14:50;;;;;;;5.47;2.00;;;;;;;;;;5095227;28;20035;-68
2021/12/09 12:17:34;;;;;;;8.52;2.08;;;;;;;;;;5099103;28;20016;-68
2021/12/09 12:20:20;;;;;;;7.07;1.50;;;;;;;;;;5098960;28;20024;-69
2021/12/09 12:28:34;;;;;;;8.65;2.20;;;;;;;;;;5089519;28;20503;-68
2021/12/09 12:37:04;;;;;;;7.13;2.03;;;;;;;;;;5083318;28;20478;-68
2021/12/09 12:39:56;;;;;;;9.90;1.95;;;;;;;;;;5099793;28;20028;-68
2021/12/09 12:42:33;;;;;;;17.17;2.58;;;;;;;;;;5101047;28;20063;-68
2021/12/09 12:45:17;;;;;;;10.73;4.25;;;;;;;;;;5099891;28;20474;-69
2021/12/09 12:47:52;;;;;;;9.02;3.53;;;;;;;;;;5093983;28;20042;-68
2021/12/09 12:50:21;;;;;;;10.20;1.90;;;;;;;;;;5097277;28;20510;-69
2021/12/09 12:52:47;;;;;;;9.20;4.05;;;;;;;;;;5101664;28;20486;-69
2021/12/09 12:55:15;;;;;;;11.32;1.50;;;;;;;;;;5102683;28;20028;-68
2021/12/09 12:57:48;;;;;;;11.70;1.70;;;;;;;;;;5097922;28;20051;-69
2021/12/09 13:00:14;;;;;;;8.77;2.90;;;;;;;;;;5101328;28;20023;-69
2021/12/09 13:05:55;;;;;;;7.18;2.25;;;;;;;;;;5097416;28;20047;-69
2021/12/09 13:08:45;;;;;;;12.23;6.03;;;;;;;;;;5094673;28;20036;-69
2021/12/09 13:11:17;;;;;;;8.13;2.65;;;;;;;;;;5098352;28;20016;-68
2021/12/09 13:13:59;;;;;;;5.57;2.45;;;;;;;;;;5099431;28;20036;-69
2021/12/09 13:21:32;;;;;;;13.30;2.40;;;;;;;;;;5095160;28;20036;-69
2021/12/09 13:24:17;;;;;;;12.77;2.35;;;;;;;;;;5101039;28;20105;-69
2021/12/09 13:27:04;;;;;;;10.82;2.30;;;;;;;;;;5099305;28;20571;-69
2021/12/09 13:29:58;;;;;;;10.38;2.80;;;;;;;;;;5098858;28;20028;-69
2021/12/09 13:46:11;;;;;;;8.82;2.03;;;;;;;;;;5101425;28;20093;-69
2021/12/09 13:48:47;;;;;;;9.48;2.38;;;;;;;;;;5099482;28;20046;-69
2021/12/09 13:51:50;;;;;;;9.95;2.30;;;;;;;;;;5101939;28;20023;-69
2021/12/09 13:56:46;;;;;;;9.13;2.70;;;;;;;;;;5094851;28;20687;-69
2021/12/09 13:59:16;;;;;;;6.60;1.80;;;;;;;;;;5100944;28;20110;-69
2021/12/09 14:01:42;;;;;;;11.02;1.88;;;;;;;;;;5098293;28;20020;-70
2021/12/09 14:04:09;;;;;;;5.68;2.13;;;;;;;;;;5102540;28;20085;-70
2021/12/09 14:06:35;;;;;;;9.32;1.60;;;;;;;;;;5099881;28;20023;-69
2021/12/09 14:09:01;;;;;;;5.72;1.63;;;;;;;;;;5100428;28;20036;-70
2021/12/09 14:11:31;;;;;;;13.10;1.77;;;;;;;;;;5097532;28;20020;-70
2021/12/09 14:14:02;;;;;;;6.45;1.70;;;;;;;;;;5100241;28;20028;-69
2021/12/09 14:19:58;;;;;;;7.50;1.75;;;;;;;;;;5099970;28;20384;-69
2021/12/09 14:21:46;;;;;;;8.45;1.50;;;;;;;;;;5096857;28;20032;-69
2021/12/09 14:24:15;;;;;;;15.75;2.25;;;;;;;;;;5101823;28;20030;-69
2021/12/09 14:26:44;;;;;;;11.95;1.80;;;;;;;;;;5099902;28;20547;-69
2021/12/09 14:29:10;;;;;;;10.13;2.10;;;;;;;;;;5100501;28;20135;-69
2021/12/09 14:31:41;;;;;;;6.70;1.90;;;;;;;;;;5100666;28;20028;-69
2021/12/09 14:34:06;;;;;;;;;;;;;;;;;;5101176;28;20020;-69
2021/12/09 14:36:34;;;;;;;8.63;1.90;;;;;;;;;;5100004;28;19907;-69
2021/12/09 14:39:05;;;;;;;10.82;2.20;;;;;;;;;;5099970;28;20475;-68
2021/12/09 14:41:31;;;;;;;10.68;1.88;;;;;;;;;;5099578;28;20020;-68
2021/12/09 14:43:57;;;;;;;8.95;1.83;;;;;;;;;;5100381;28;20032;-68
2021/12/09 14:46:27;;;;;;;9.95;2.20;;;;;;;;;;5105563;28;20027;-69
2021/12/09 14:48:53;;;;;;;8.90;1.90;;;;;;;;;;5102607;28;20047;-69
2021/12/09 14:51:25;;;;;;;5.45;1.90;;;;;;;;;;5102987;28;20383;-69
2021/12/09 14:53:54;;;;;;;8.00;1.73;;;;;;;;;;5099479;28;20072;-69
2021/12/09 14:56:40;;;;;;;5.25;1.55;;;;;;;;;;5103262;28;20024;-68
2021/12/09 14:59:21;;;;;;;6.93;2.22;;;;;;;;;;5103612;28;20024;-69
2021/12/09 15:01:50;;;;;;;8.13;1.50;;;;;;;;;;5099936;28;20078;-69
2021/12/09 15:04:30;;;;;;;8.25;1.88;;;;;;;;;;5102656;28;20020;-68
2021/12/09 15:06:59;;;;;;;7.72;1.60;;;;;;;;;;5101286;28;20408;-69
2021/12/09 15:09:25;;;;;;;5.55;1.70;;;;;;;;;;5101930;28;20027;-68
2021/12/09 15:11:53;;;;;;;8.55;1.30;;;;;;;;;;5093265;28;20534;-68
2021/12/09 15:14:28;;;;;;;6.10;1.77;;;;;;;;;;5083307;28;20035;-68
2021/12/09 15:17:14;;;;;;;12.90;2.13;;;;;;;;;;5097843;28;20061;-68
2021/12/09 15:19:42;;;;;;;6.68;2.28;;;;;;;;;;5101821;28;20077;-69
2021/12/09 15:22:13;;;;;;;8.88;2.55;;;;;;;;;;5085662;28;20020;-69
2021/12/09 15:24:58;;;;;;;6.82;1.63;;;;;;;;;;5084344;28;20028;-69
2021/12/09 15:27:26;;;;;;;6.95;2.08;;;;;;;;;;5099160;28;20027;-69
2021/12/09 15:29:52;;;;;;;10.35;2.13;;;;;;;;;;5097532;28;20020;-69
2021/12/09 15:32:18;;;;;;;10.95;3.25;;;;;;;;;;5100572;28;20508;-69
2021/12/09 15:34:48;;;;;;;11.85;3.55;;;;;;;;;;5103625;28;20028;-69
2021/12/09 15:37:15;;;;;;;9.70;3.30;;;;;;;;;;5104710;28;20019;-69
2021/12/09 15:39:43;;;;;;;11.25;3.30;;;;;;;;;;5101211;28;20028;-69
2021/12/09 15:42:14;;;;;;;16.52;3.97;;;;;;;;;;5102267;28;20039;-69
2021/12/09 15:44:45;;;;;;;11.30;4.25;;;;;;;;;;5101178;28;20024;-69
2021/12/09 15:47:11;;;;;;;8.55;2.80;;;;;;;;;;5102169;28;20039;-69
2021/12/09 15:49:47;;;;;;;9.18;2.47;;;;;;;;;;5103904;28;20020;-69
2021/12/09 15:52:14;;;;;;;9.48;2.20;;;;;;;;;;5103435;28;20069;-69
2021/12/09 15:54:46;;;;;;;6.60;2.03;;;;;;;;;;5099965;28;20071;-69
2021/12/09 15:57:16;;;;;;;6.63;1.92;;;;;;;;;;5099477;28;20093;-68
2021/12/09 15:59:43;;;;;;;7.72;1.95;;;;;;;;;;5097342;28;20028;-69
2021/12/09 16:02:10;;;;;;;13.60;1.83;;;;;;;;;;5102207;28;20044;-69
2021/12/09 16:04:36;;;;;;;8.27;1.95;;;;;;;;;;5100950;28;20099;-69
2021/12/09 16:07:03;;;;;;;6.72;1.60;;;;;;;;;;5098032;28;20028;-69
2021/12/09 16:09:30;;;;;;;12.10;2.10;;;;;;;;;;5101551;28;20379;-69
2021/12/09 16:11:59;;;;;;;10.32;1.80;;;;;;;;;;5099415;28;20154;-69
2021/12/09 16:14:27;;;;;;;11.55;1.90;;;;;;;;;;5101521;28;20444;-69
2021/12/09 16:16:57;;;;;;;6.78;2.30;;;;;;;;;;5099425;28;20501;-69
2021/12/09 16:19:33;;;;;;;9.75;2.40;;;;;;;;;;5104002;28;20031;-69
2021/12/09 16:24:45;;;;;;;7.32;2.85;;;;;;;;;;5099181;28;20031;-69
2021/12/09 16:27:12;;;;;;;8.00;2.45;;;;;;;;;;5082354;28;20163;-69
2021/12/09 16:29:39;;;;;;;8.65;2.67;;;;;;;;;;5098409;28;20024;-69
2021/12/09 16:32:05;;;;;;;8.35;2.90;;;;;;;;;;5099964;28;20394;-69
2021/12/09 16:34:31;;;;;;;9.57;3.25;;;;;;;;;;5097004;28;20048;-69
2021/12/09 16:36:58;;;;;;;12.15;2.40;;;;;;;;;;5098042;28;20020;-69
2021/12/09 16:39:24;;;;;;;10.65;2.75;;;;;;;;;;5102632;28;20031;-68
2021/12/09 16:41:50;;;;;;;8.68;2.78;;;;;;;;;;5098676;28;20024;-68
2021/12/09 16:44:16;;;;;;;9.45;2.55;;;;;;;;;;5101572;28;20490;-68
2021/12/09 16:46:43;;;;;;;10.90;2.83;;;;;;;;;;5082620;28;20077;-69
2021/12/09 16:49:10;;;;;;;8.85;2.45;;;;;;;;;;5100474;28;20459;-69
2021/12/09 16:51:36;;;;;;;15.30;5.32;;;;;;;;;;5081139;28;20020;-69
2021/12/09 16:54:02;;;;;;;77.30;45.05;;;;;;;;;;5100491;28;20024;-68
2021/12/09 16:59:29;;;;;;;8.63;3.47;;;;;;;;;;5067568;28;20412;-69
2021/12/09 17:02:05;;;;;;;9.23;3.50;;;;;;;;;;5095442;28;20028;-69
2021/12/09 17:04:32;;;;;;;12.05;3.65;;;;;;;;;;5099940;28;20102;-68
2021/12/09 17:06:59;;;;;;;8.52;3.70;;;;;;;;;;5097404;28;20039;-69
2021/12/09 17:09:25;;;;;;;10.30;3.63;;;;;;;;;;5100118;28;20019;-68
2021/12/09 17:11:52;;;;;;;12.63;3.92;;;;;;;;;;5098399;28;20521;-69
2021/12/09 17:14:20;;;;;;;19.17;8.07;;;;;;;;;;5094296;28;20031;-68
2021/12/09 17:16:46;;;;;;;12.63;6.30;;;;;;;;;;5099350;28;20506;-69
2021/12/09 17:19:13;;;;;;;12.15;4.88;;;;;;;;;;5101790;28;20030;-68
2021/12/09 17:21:40;;;;;;;5.30;3.40;;;;;;;;;;5099489;28;20123;-68
2021/12/09 17:24:07;;;;;;;9.38;3.97;;;;;;;;;;5099071;28;20031;-68
2021/12/09 17:26:38;;;;;;;10.73;4.18;;;;;;;;;;5082633;28;20391;-68
2021/12/09 17:29:07;;;;;;;8.07;4.10;;;;;;;;;;5078548;28;20055;-70
2021/12/09 17:31:40;;;;;;;11.70;4.38;;;;;;;;;;5094378;28;20024;-70
2021/12/09 17:34:06;;;;;;;10.98;6.25;;;;;;;;;;5094981;28;20031;-69
2021/12/09 17:36:36;;;;;;;11.75;5.60;;;;;;;;;;5098535;28;20031;-69
2021/12/09 17:39:04;;;;;;;20.10;6.20;;;;;;;;;;5098039;28;20017;-70
2021/12/09 17:41:32;;;;;;;14.23;6.68;;;;;;;;;;5098254;28;20028;-70
2021/12/09 17:43:58;;;;;;;22.17;11.15;;;;;;;;;;5098765;28;20035;-70
2021/12/09 17:46:24;;;;;;;23.77;10.10;;;;;;;;;;5100488;28;20095;-70
2021/12/09 17:48:50;;;;;;;18.70;9.75;;;;;;;;;;5096011;28;20028;-70
2021/12/09 17:51:18;;;;;;;17.60;8.48;;;;;;;;;;5097449;28;20028;-69
2021/12/09 17:53:45;;;;;;;19.67;9.55;;;;;;;;;;5098630;28;20414;-69
2021/12/09 17:56:13;;;;;;;23.02;11.48;;;;;;;;;;5100089;28;20507;-69
2021/12/09 17:58:41;;;;;;;21.90;13.25;;;;;;;;;;5086037;28;20567;-69
2021/12/09 18:01:08;;;;;;;17.80;8.90;;;;;;;;;;5097879;28;20028;-68
2021/12/09 18:03:34;;;;;;;14.93;7.40;;;;;;;;;;5097735;28;20467;-68
2021/12/09 18:06:01;;;;;;;14.65;8.98;;;;;;;;;;5096773;28;20386;-69
2021/12/09 18:08:27;;;;;;;17.67;8.43;;;;;;;;;;5096649;28;20025;-71
2021/12/09 18:10:53;;;;;;;22.98;5.65;;;;;;;;;;5097276;28;20031;-67
2021/12/09 18:13:21;;;;;;;20.38;7.55;;;;;;;;;;5071726;28;20024;-67
2021/12/09 18:15:49;;;;;;;17.17;8.32;;;;;;;;;;5076134;28;20544;-66
2021/12/09 18:18:16;;;;;;;17.90;7.80;;;;;;;;;;5078020;28;20072;-66
2021/12/09 18:20:43;;;;;;;14.80;7.55;;;;;;;;;;5089387;28;20134;-67
2021/12/09 18:23:10;;;;;;;14.23;7.63;;;;;;;;;;5089266;28;20438;-65
2021/12/09 18:25:36;;;;;;;13.90;6.18;;;;;;;;;;5099874;28;20026;-66
2021/12/09 18:28:03;;;;;;;10.45;5.85;;;;;;;;;;5101783;28;20086;-65
2021/12/09 18:30:31;;;;;;;16.63;6.28;;;;;;;;;;5093704;28;20032;-66
2021/12/09 18:32:58;;;;;;;9.43;5.22;;;;;;;;;;5092650;28;20090;-65
2021/12/09 18:35:28;;;;;;;9.38;4.70;;;;;;;;;;5088484;28;20115;-66
2021/12/09 18:37:56;;;;;;;9.60;5.78;;;;;;;;;;5093091;28;20020;-66
2021/12/09 18:40:28;;;;;;;12.25;5.07;;;;;;;;;;5094301;28;20516;-66
2021/12/09 18:42:55;;;;;;;11.95;5.78;;;;;;;;;;5092376;28;20087;-66
2021/12/09 18:45:23;;;;;;;8.02;4.85;;;;;;;;;;5092293;28;20019;-66
2021/12/09 18:47:50;;;;;;;12.00;5.97;;;;;;;;;;5092580;28;20047;-66
2021/12/09 18:50:17;;;;;;;12.43;5.28;;;;;;;;;;5092447;28;20028;-66
2021/12/09 18:52:43;;;;;;;66.18;33.00;;;;;;;;;;5088744;28;20032;-66
2021/12/09 18:55:09;;;;;;;62.40;33.75;;;;;;;;;;5088343;28;20028;-66
2021/12/09 18:57:36;;;;;;;36.60;19.40;;;;;;;;;;5091450;28;20144;-65
2021/12/09 19:00:04;;;;;;;23.52;12.30;;;;;;;;;;5088073;28;20060;-65
2021/12/09 19:02:30;;;;;;;19.45;10.50;;;;;;;;;;5087114;28;20023;-65
2021/12/09 19:04:57;;;;;;;19.25;9.32;;;;;;;;;;5081658;28;20108;-66
2021/12/09 19:07:24;;;;;;;17.00;7.72;;;;;;;;;;5088273;28;20128;-67
2021/12/09 19:09:50;;;;;;;17.00;6.80;;;;;;;;;;5085867;28;20027;-67
2021/12/09 19:12:16;;;;;;;11.90;5.80;;;;;;;;;;5088892;28;20028;-67
2021/12/09 19:14:43;;;;;;;14.73;5.47;;;;;;;;;;5099245;28;20027;-67
2021/12/09 19:17:15;;;;;;;11.80;4.60;;;;;;;;;;5098323;28;20027;-67
2021/12/09 19:19:42;;;;;;;9.95;4.43;;;;;;;;;;5097168;28;20030;-68
2021/12/09 19:22:08;;;;;;;9.60;5.03;;;;;;;;;;5095229;28;20039;-67
2021/12/09 19:24:34;;;;;;;10.65;5.25;;;;;;;;;;5094689;28;20046;-67
2021/12/09 19:27:02;;;;;;;11.32;4.63;;;;;;;;;;5088392;28;20055;-67
2021/12/09 19:29:29;;;;;;;11.50;5.70;;;;;;;;;;5095908;28;20047;-68
2021/12/09 19:31:55;;;;;;;10.50;5.32;;;;;;;;;;5089918;28;20018;-68
2021/12/09 19:34:22;;;;;;;13.35;5.32;;;;;;;;;;5088881;28;20035;-67
2021/12/09 19:36:50;;;;;;;12.27;4.50;;;;;;;;;;5087412;28;20020;-67
2021/12/09 19:39:19;;;;;;;11.23;4.47;;;;;;;;;;5094533;28;20558;-67
2021/12/09 19:41:46;;;;;;;17.30;7.07;;;;;;;;;;5101656;28;20028;-66
2021/12/09 19:44:13;;;;;;;23.30;8.75;;;;;;;;;;5089376;28;20024;-66
2021/12/09 19:46:39;;;;;;;18.30;8.07;;;;;;;;;;5084714;28;20113;-66
2021/12/09 19:49:05;;;;;;;14.18;6.18;;;;;;;;;;5087650;28;20562;-67
2021/12/09 19:51:32;;;;;;;12.57;5.13;;;;;;;;;;5090382;28;20039;-66
2021/12/09 19:54:00;;;;;;;12.60;5.35;;;;;;;;;;5095398;28;20028;-67
2021/12/09 19:56:26;;;;;;;13.68;6.50;;;;;;;;;;5090501;28;20394;-66
2021/12/09 19:58:53;;;;;;;10.90;5.47;;;;;;;;;;5095994;28;20039;-66
2021/12/09 20:01:19;;;;;;;12.38;5.18;;;;;;;;;;5096205;28;20521;-66
2021/12/09 20:03:45;;;;;;;14.65;5.13;;;;;;;;;;5087588;28;20035;-66
2021/12/09 20:06:13;;;;;;;10.07;4.63;;;;;;;;;;5075461;28;20043;-67
2021/12/09 20:08:40;;;;;;;10.90;4.88;;;;;;;;;;5090761;28;20052;-67
2021/12/09 20:11:08;;;;;;;15.30;6.00;;;;;;;;;;5097506;28;20019;-66
2021/12/09 20:13:37;;;;;;;26.90;14.32;;;;;;;;;;5101515;27;20032;-67
2021/12/09 20:16:04;;;;;;;29.48;15.57;;;;;;;;;;5094570;28;20081;-67
2021/12/09 20:18:30;;;;;;;25.45;13.07;;;;;;;;;;5092008;28;20094;-67
2021/12/09 20:20:56;;;;;;;16.75;10.07;;;;;;;;;;5083562;28;20090;-67
2021/12/09 20:23:23;;;;;;;19.40;9.57;;;;;;;;;;5097822;28;20134;-67
2021/12/09 20:25:49;;;;;;;16.95;9.77;;;;;;;;;;5087835;28;20031;-66
2021/12/09 20:28:15;;;;;;;21.25;10.68;;;;;;;;;;5088525;28;20035;-66
2021/12/09 20:30:41;;;;;;;19.90;12.15;;;;;;;;;;5093453;28;20028;-66
2021/12/09 20:33:08;;;;;;;22.58;12.27;;;;;;;;;;5088974;28;20031;-65
2021/12/09 20:35:34;;;;;;;24.00;14.02;;;;;;;;;;5091123;28;20020;-65
2021/12/09 20:38:00;;;;;;;30.30;14.90;;;;;;;;;;5088783;28;20491;-65
2021/12/09 20:40:27;;;;;;;21.25;13.18;;;;;;;;;;5086586;28;20077;-65
2021/12/09 20:42:54;;;;;;;24.63;13.90;;;;;;;;;;5091497;28;20024;-65
2021/12/09 20:45:22;;;;;;;25.63;12.82;;;;;;;;;;5090614;28;20032;-66
2021/12/09 20:47:49;;;;;;;18.23;11.27;;;;;;;;;;5095393;28;20502;-65
2021/12/09 20:50:26;;;;;;;21.38;11.38;;;;;;;;;;5091676;28;20035;-65
2021/12/09 20:52:53;;;;;;;20.15;9.48;;;;;;;;;;5090037;28;20077;-65
2021/12/09 20:55:20;;;;;;;27.17;10.35;;;;;;;;;;5090212;28;20026;-66
2021/12/09 20:57:46;;;;;;;62.47;27.17;;;;;;;;;;5087723;28;20853;-66
2021/12/09 21:00:15;;;;;;;31.33;13.88;;;;;;;;;;5087799;28;20028;-65
2021/12/09 21:02:41;;;;;;;23.15;10.85;;;;;;;;;;5090112;28;20480;-65
2021/12/09 21:05:07;;;;;;;19.75;9.05;;;;;;;;;;5095893;28;20023;-66
2021/12/09 21:07:34;;;;;;;14.45;6.95;;;;;;;;;;5089543;28;20028;-66
2021/12/09 21:10:00;;;;;;;10.50;5.28;;;;;;;;;;5084831;28;20543;-66
2021/12/09 21:12:30;;;;;;;29.02;10.07;;;;;;;;;;5083398;28;20032;-67
2021/12/09 21:14:56;;;;;;;12.05;5.93;;;;;;;;;;5094895;28;20028;-67
2021/12/09 21:17:23;;;;;;;10.77;5.38;;;;;;;;;;5091720;28;20027;-66
2021/12/09 21:19:52;;;;;;;9.23;4.28;;;;;;;;;;5092701;28;20024;-66
2021/12/09 21:22:18;;;;;;;10.65;4.78;;;;;;;;;;5091823;28;20026;-66
2021/12/09 21:24:44;;;;;;;10.60;5.03;;;;;;;;;;5080262;28;20471;-67
2021/12/09 21:27:11;;;;;;;9.02;4.75;;;;;;;;;;5077036;28;20038;-67
2021/12/09 21:29:39;;;;;;;11.82;5.07;;;;;;;;;;5096660;28;20038;-66
2021/12/09 21:32:06;;;;;;;16.10;6.07;;;;;;;;;;5090478;28;20079;-67
2021/12/09 21:34:42;;;;;;;15.15;5.80;;;;;;;;;;5109469;27;20070;-67
2021/12/09 21:37:13;;;;;;;16.52;5.63;;;;;;;;;;5092693;28;20062;-67
2021/12/09 21:39:39;;;;;;;14.23;5.05;;;;;;;;;;5095665;28;20450;-66
2021/12/09 21:42:05;;;;;;;11.95;4.95;;;;;;;;;;5088269;28;20063;-66
2021/12/09 21:44:32;;;;;;;13.30;5.13;;;;;;;;;;5089334;28;20050;-66
2021/12/09 21:46:58;;;;;;;13.13;4.47;;;;;;;;;;5090948;28;20035;-66
2021/12/09 21:49:25;;;;;;;14.15;5.18;;;;;;;;;;5088877;28;20529;-66
2021/12/09 21:51:51;;;;;;;8.55;4.10;;;;;;;;;;5097560;28;20016;-66
2021/12/09 21:54:20;;;;;;;7.53;3.97;;;;;;;;;;5092411;28;20035;-67
2021/12/09 21:56:46;;;;;;;6.22;3.85;;;;;;;;;;5093400;28;20056;-67
2021/12/09 21:59:12;;;;;;;8.70;4.13;;;;;;;;;;5076818;28;20025;-67
2021/12/09 22:01:39;;;;;;;8.32;3.67;;;;;;;;;;5077527;28;20032;-67
2021/12/09 22:04:05;;;;;;;7.35;3.63;;;;;;;;;;5095950;28;20512;-68
2021/12/09 22:06:32;;;;;;;6.97;3.72;;;;;;;;;;5091555;28;20028;-68
2021/12/09 22:08:59;;;;;;;7.32;3.08;;;;;;;;;;5093874;28;20507;-66
2021/12/09 22:11:26;;;;;;;7.13;3.17;;;;;;;;;;5096614;28;20106;-66
2021/12/09 22:13:54;;;;;;;6.70;2.70;;;;;;;;;;5097528;28;20024;-67
2021/12/09 22:16:26;;;;;;;5.72;2.75;;;;;;;;;;5099272;28;20076;-67
2021/12/09 22:18:52;;;;;;;7.70;2.92;;;;;;;;;;5094000;28;20024;-68
2021/12/09 22:21:19;;;;;;;8.98;2.60;;;;;;;;;;5083212;28;20092;-67
2021/12/09 22:23:46;;;;;;;6.50;2.63;;;;;;;;;;5077706;28;20029;-66
2021/12/09 22:26:13;;;;;;;5.95;2.60;;;;;;;;;;5074930;28;20118;-66
2021/12/09 22:28:40;;;;;;;5.40;2.60;;;;;;;;;;5073654;28;20068;-67
2021/12/09 22:31:07;;;;;;;6.13;2.78;;;;;;;;;;5072633;28;20025;-67
2021/12/09 22:33:33;;;;;;;4.57;2.30;;;;;;;;;;5074445;28;20048;-67
2021/12/09 22:35:59;;;;;;;4.78;2.70;;;;;;;;;;5093491;28;20024;-67
2021/12/09 22:38:26;;;;;;;5.63;2.70;;;;;;;;;;5095828;28;20110;-67
2021/12/09 22:40:57;;;;;;;3.72;2.40;;;;;;;;;;5096518;28;20383;-68
2021/12/09 22:43:24;;;;;;;9.32;2.58;;;;;;;;;;5086800;28;20058;-67
2021/12/09 22:45:51;;;;;;;5.82;3.05;;;;;;;;;;5092872;28;20041;-67
2021/12/09 22:48:20;;;;;;;9.15;3.22;;;;;;;;;;5089795;28;20037;-67
2021/12/09 22:50:50;;;;;;;6.72;2.80;;;;;;;;;;5088485;28;20147;-67
2021/12/09 22:53:18;;;;;;;7.05;2.80;;;;;;;;;;5090523;28;20107;-67
2021/12/09 22:55:44;;;;;;;6.20;3.03;;;;;;;;;;5087458;28;20028;-67
2021/12/09 22:58:11;;;;;;;4.53;2.30;;;;;;;;;;5071000;28;20560;-67
2021/12/09 23:00:43;;;;;;;7.18;2.40;;;;;;;;;;5086448;28;20024;-67
